Time;durP1;ratioP1;P1;durP2;ratioP2;P2;SDS_P1;SDS_P2;PMS_P1;PMS_P2;Temp;Humidity;BMP_temperature;BMP_pressure;BME280_temperature;BME280_humidity;BME280_pressure;Samples;Min_cycle;Max_cycle;Signal;HPM_P1;HPM_P2
2021/10/22 00:00:23;;;;;;;10.13;4.85;;;;;;;15.76;48.67;98372.13;1743050;82;21083;-38
2021/10/22 00:02:50;;;;;;;11.05;4.60;;;;;;;15.74;48.62;98374.48;1743416;81;21634;-37
2021/10/22 00:05:16;;;;;;;10.03;4.87;;;;;;;15.73;48.70;98375.70;1743083;82;21037;-37
2021/10/22 00:07:43;;;;;;;11.63;4.90;;;;;;;15.72;48.81;98370.05;1743387;82;21098;-37
2021/10/22 00:10:12;;;;;;;11.03;5.40;;;;;;;15.72;48.87;98370.05;1707285;83;20945;-38
2021/10/22 00:12:40;;;;;;;12.18;5.12;;;;;;;15.71;48.93;98367.73;1743195;81;21499;-38
2021/10/22 00:15:08;;;;;;;7.22;4.92;;;;;;;15.68;48.95;98361.73;1743224;82;20966;-38
2021/10/22 00:17:37;;;;;;;10.90;5.22;;;;;;;15.67;49.05;98359.59;1707278;83;21591;-37
2021/10/22 00:20:07;;;;;;;9.23;4.83;;;;;;;15.65;49.04;98354.55;1707345;84;21178;-38
2021/10/22 00:22:35;;;;;;;14.10;5.40;;;;;;;15.63;49.07;98356.16;1743288;81;20958;-38
2021/10/22 00:25:01;;;;;;;8.23;5.25;;;;;;;15.62;49.21;98353.25;1707886;84;21503;-37
2021/10/22 00:27:28;;;;;;;10.13;5.22;;;;;;;15.61;49.29;98360.67;1707659;84;21080;-37
2021/10/22 00:29:58;;;;;;;8.18;5.30;;;;;;;15.60;49.31;98361.85;1743470;81;21540;-38
2021/10/22 00:32:25;;;;;;;9.00;4.80;;;;;;;15.59;49.34;98354.06;1707940;83;21617;-38
2021/10/22 00:34:51;;;;;;;11.65;5.30;;;;;;;15.58;49.42;98353.31;1743348;82;20918;-37
2021/10/22 00:37:18;;;;;;;11.57;5.12;;;;;;;15.59;49.48;98358.16;1743574;82;21385;-37
2021/10/22 00:39:44;;;;;;;6.75;4.90;;;;;;;15.57;49.43;98357.23;1707449;83;21041;-37
2021/10/22 00:42:11;;;;;;;8.08;4.80;;;;;;;15.56;49.43;98368.56;1714160;83;21088;-37
2021/10/22 00:44:38;;;;;;;12.85;4.85;;;;;;;15.54;49.49;98363.51;1715237;83;21132;-38
2021/10/22 00:47:04;;;;;;;8.18;5.08;;;;;;;15.53;49.51;98361.22;1715096;83;21028;-38
2021/10/22 00:49:31;;;;;;;9.83;5.30;;;;;;;15.39;49.45;98351.87;1751350;81;21057;-37
2021/10/22 00:51:58;;;;;;;10.58;4.87;;;;;;;15.50;49.50;98381.12;1715150;83;21024;-38
2021/10/22 00:54:26;;;;;;;7.60;4.58;;;;;;;15.48;49.58;98383.51;1715088;83;20985;-38
2021/10/22 00:56:52;;;;;;;8.83;4.78;;;;;;;15.45;49.56;98387.83;1715010;83;21136;-37
2021/10/22 00:59:19;;;;;;;7.20;4.17;;;;;;;15.43;49.62;98390.81;1715021;83;21012;-38
2021/10/22 01:01:46;;;;;;;9.83;4.25;;;;;;;15.43;49.65;98388.86;1715173;83;21507;-38
2021/10/22 01:04:13;;;;;;;9.25;4.85;;;;;;;15.43;49.74;98390.81;1751310;81;21045;-38
2021/10/22 01:06:41;;;;;;;6.03;4.15;;;;;;;15.41;49.67;98396.67;1751334;82;21024;-38
2021/10/22 01:09:10;;;;;;;9.13;4.42;;;;;;;15.40;49.57;98402.55;1751233;82;21152;-38
2021/10/22 01:11:37;;;;;;;8.05;4.03;;;;;;;15.40;49.54;98398.45;1751273;82;21025;-38
2021/10/22 01:14:07;;;;;;;8.90;4.83;;;;;;;15.41;49.48;98402.73;1715150;83;20933;-37
2021/10/22 01:16:37;;;;;;;6.58;4.58;;;;;;;15.42;49.42;98411.11;1714963;83;20977;-37
2021/10/22 01:19:04;;;;;;;8.60;4.58;;;;;;;15.43;49.15;98408.56;1715251;83;21044;-37
2021/10/22 01:21:31;;;;;;;9.35;4.30;;;;;;;15.46;49.15;98407.13;1714999;83;21134;-37
2021/10/22 01:23:57;;;;;;;8.03;4.00;;;;;;;15.47;48.70;98410.05;1715080;83;21007;-38
2021/10/22 01:26:24;;;;;;;7.65;4.12;;;;;;;15.50;48.40;98407.84;1751310;81;20925;-38
2021/10/22 01:28:51;;;;;;;9.15;4.37;;;;;;;15.55;48.09;98417.55;1715197;83;21035;-37
2021/10/22 01:31:17;;;;;;;10.08;4.25;;;;;;;15.58;47.98;98416.16;1715361;83;21022;-38
2021/10/22 01:33:48;;;;;;;11.80;4.10;;;;;;;15.61;47.89;98420.77;1751475;81;21309;-38
2021/10/22 01:36:12;;;;;;;7.70;4.42;;;;;;;15.63;47.46;98421.73;1708154;82;21799;-37
2021/10/22 01:38:39;;;;;;;7.60;3.83;;;;;;;15.67;47.35;98438.84;1750999;82;21029;-38
2021/10/22 01:41:06;;;;;;;8.70;3.98;;;;;;;15.68;47.29;98439.02;1752634;81;20974;-38
2021/10/22 01:43:33;;;;;;;5.58;3.50;;;;;;;15.69;47.03;98435.08;1720370;83;21360;-38
2021/10/22 01:46:00;;;;;;;6.47;3.95;;;;;;;15.70;47.15;98439.36;1720362;83;21150;-38
2021/10/22 01:48:28;;;;;;;29.75;4.95;;;;;;;15.70;47.02;98450.30;1720498;83;20929;-38
2021/10/22 01:50:55;;;;;;;7.83;3.80;;;;;;;15.70;47.16;98444.83;1720534;83;21016;-38
2021/10/22 01:53:23;;;;;;;7.62;3.90;;;;;;;15.68;47.03;98451.31;1720186;83;21044;-38
2021/10/22 01:55:51;;;;;;;6.17;3.67;;;;;;;15.67;47.21;98455.23;1719721;82;21539;-37
2021/10/22 01:58:19;;;;;;;5.17;3.20;;;;;;;15.64;47.07;98466.38;1719626;83;21840;-38
2021/10/22 02:00:46;;;;;;;6.70;3.33;;;;;;;15.61;47.16;98457.66;1724378;82;21027;-38
2021/10/22 02:03:12;;;;;;;9.60;3.65;;;;;;;15.58;47.16;98463.19;1691711;84;21113;-38
2021/10/22 02:05:39;;;;;;;11.43;3.80;;;;;;;15.57;47.39;98461.63;1720909;83;20960;-37
2021/10/22 02:08:05;;;;;;;9.03;3.83;;;;;;;15.52;47.39;98467.56;1692056;84;21111;-37
2021/10/22 02:10:32;;;;;;;6.90;3.62;;;;;;;15.47;47.68;98459.81;1720709;83;21823;-38
2021/10/22 02:12:59;;;;;;;8.73;3.98;;;;;;;15.41;47.54;98467.69;1691844;84;20975;-38
2021/10/22 02:15:25;;;;;;;6.17;3.62;;;;;;;15.37;47.75;98464.24;1720971;83;21103;-38
2021/10/22 02:17:53;;;;;;;5.20;3.20;;;;;;;15.32;47.73;98470.76;1720733;83;21440;-37
2021/10/22 02:20:21;;;;;;;7.47;4.00;;;;;;;15.28;47.80;98472.19;1690494;84;21103;-37
2021/10/22 02:22:49;;;;;;;7.40;3.72;;;;;;;15.23;47.96;98487.08;1690364;84;21135;-38
2021/10/22 02:25:16;;;;;;;6.65;3.65;;;;;;;15.16;48.05;98479.55;1690419;84;21024;-38
2021/10/22 02:27:44;;;;;;;4.65;3.27;;;;;;;15.10;48.10;98481.97;1690369;84;20976;-38
2021/10/22 02:30:11;;;;;;;7.65;3.70;;;;;;;15.05;48.25;98481.67;1690350;84;21556;-38
2021/10/22 02:32:39;;;;;;;5.87;3.45;;;;;;;15.01;48.46;98485.02;1720606;83;21053;-38
2021/10/22 02:35:07;;;;;;;7.83;3.67;;;;;;;14.95;48.50;98491.55;1692184;84;21752;-38
2021/10/22 02:37:33;;;;;;;6.95;3.77;;;;;;;14.91;48.63;98490.80;1720443;83;20989;-38
2021/10/22 02:40:00;;;;;;;8.18;3.67;;;;;;;14.88;48.73;98501.77;1691809;84;21699;-38
2021/10/22 02:42:28;;;;;;;7.87;3.60;;;;;;;14.82;48.73;98500.07;1720526;83;21083;-37
2021/10/22 02:44:54;;;;;;;6.80;3.50;;;;;;;14.77;48.82;98499.16;1691618;84;21102;-38
2021/10/22 02:47:21;;;;;;;5.35;3.42;;;;;;;14.73;48.93;98505.25;1720471;83;21147;-38
2021/10/22 02:49:48;;;;;;;10.18;3.10;;;;;;;14.70;49.07;98510.17;1691623;84;20988;-37
2021/10/22 02:52:15;;;;;;;5.42;3.52;;;;;;;14.66;49.12;98506.70;1696246;83;21043;-38
2021/10/22 02:54:42;;;;;;;8.50;3.37;;;;;;;14.64;49.18;98518.61;1691444;84;21008;-38
2021/10/22 02:57:08;;;;;;;7.08;3.47;;;;;;;14.60;49.06;98515.14;1691717;84;21534;-37
2021/10/22 02:59:35;;;;;;;8.00;3.40;;;;;;;14.58;49.03;98520.22;1691537;84;21603;-37
2021/10/22 03:02:02;;;;;;;3.98;3.20;;;;;;;14.57;49.13;98524.16;1691537;84;21056;-37
2021/10/22 03:04:29;;;;;;;4.83;3.10;;;;;;;14.52;49.21;98526.73;1691550;84;21011;-38
2021/10/22 03:06:56;;;;;;;5.10;3.22;;;;;;;14.50;49.14;98521.48;1691640;84;21502;-38
2021/10/22 03:09:22;;;;;;;5.58;3.40;;;;;;;14.47;49.24;98523.08;1691487;84;21083;-37
2021/10/22 03:11:49;;;;;;;7.97;3.22;;;;;;;14.45;49.44;98529.52;1691721;84;21139;-38
2021/10/22 03:14:18;;;;;;;5.12;3.27;;;;;;;14.44;49.48;98542.19;1691495;84;21088;-38
2021/10/22 03:16:44;;;;;;;5.87;2.80;;;;;;;14.42;49.70;98532.30;1691661;84;21027;-38
2021/10/22 03:19:11;;;;;;;9.45;3.70;;;;;;;14.38;49.68;98538.37;1691672;84;21132;-38
2021/10/22 03:21:41;;;;;;;12.03;3.15;;;;;;;14.34;49.85;98548.67;1691662;84;21055;-38
2021/10/22 03:24:09;;;;;;;10.25;3.45;;;;;;;14.31;49.92;98541.31;1691670;84;21649;-37
2021/10/22 03:26:36;;;;;;;5.30;3.25;;;;;;;14.26;49.91;98534.94;1691599;84;21488;-38
2021/10/22 03:29:03;;;;;;;6.22;3.30;;;;;;;14.24;49.97;98541.95;1691616;84;21059;-38
2021/10/22 03:31:32;;;;;;;8.18;3.42;;;;;;;14.22;50.12;98545.10;1691504;84;21584;-37
2021/10/22 03:33:59;;;;;;;6.55;3.87;;;;;;;14.21;50.07;98544.91;1691760;84;21533;-37
2021/10/22 03:36:27;;;;;;;8.15;3.10;;;;;;;14.21;50.13;98551.72;1691565;84;21132;-38
2021/10/22 03:38:54;;;;;;;9.58;3.27;;;;;;;14.18;50.16;98553.91;1691712;84;21467;-38
2021/10/22 03:41:20;;;;;;;5.90;3.08;;;;;;;14.14;50.01;98558.59;1691339;84;21399;-38
2021/10/22 03:43:47;;;;;;;5.97;2.87;;;;;;;14.11;49.93;98558.63;1686398;85;21024;-38
2021/10/22 03:46:14;;;;;;;7.47;2.87;;;;;;;14.07;49.68;98548.34;1686412;85;21499;-38
2021/10/22 03:48:41;;;;;;;8.98;2.87;;;;;;;14.06;49.42;98568.01;1721074;83;21058;-38
2021/10/22 03:51:09;;;;;;;5.55;2.52;;;;;;;13.72;48.99;98518.05;1721073;82;20977;-38
2021/10/22 03:53:37;;;;;;;4.28;2.55;;;;;;;14.03;48.89;98566.09;1721195;83;20942;-38
2021/10/22 03:56:05;;;;;;;6.70;2.50;;;;;;;14.03;48.69;98566.68;1721174;83;20973;-37
2021/10/22 03:58:32;;;;;;;4.08;2.87;;;;;;;14.01;48.50;98577.20;1721299;83;21396;-38
2021/10/22 04:00:59;;;;;;;5.67;2.67;;;;;;;14.02;48.41;98581.48;1721366;83;21811;-38
2021/10/22 04:03:25;;;;;;;5.20;2.25;;;;;;;14.00;48.27;98583.81;1721239;82;20938;-37
2021/10/22 04:05:52;;;;;;;8.03;2.30;;;;;;;13.97;48.24;98593.58;1721336;82;21084;-38
2021/10/22 04:08:20;;;;;;;6.10;2.00;;;;;;;13.95;48.19;98601.37;1721108;83;21033;-37
2021/10/22 04:10:46;;;;;;;5.47;2.55;;;;;;;13.91;48.23;98601.98;1721631;82;21099;-37
2021/10/22 04:13:14;;;;;;;3.17;2.15;;;;;;;13.87;48.47;98600.66;1721396;82;21935;-37
2021/10/22 04:15:41;;;;;;;5.90;2.65;;;;;;;13.85;48.84;98594.03;1721393;83;21079;-37
2021/10/22 04:18:10;;;;;;;8.60;2.55;;;;;;;13.79;49.19;98599.74;1721172;82;21033;-37
2021/10/22 04:20:37;;;;;;;5.67;2.58;;;;;;;13.71;49.28;98608.52;1721131;83;21511;-38
2021/10/22 04:23:05;;;;;;;8.20;2.52;;;;;;;13.62;49.34;98599.25;1721327;83;21503;-38
2021/10/22 04:25:34;;;;;;;10.68;2.52;;;;;;;13.56;49.19;98600.83;1721338;83;21136;-38
2021/10/22 04:28:02;;;;;;;5.47;1.70;;;;;;;13.48;48.87;98605.55;1721332;83;20922;-38
2021/10/22 04:30:28;;;;;;;8.73;2.10;;;;;;;13.41;48.72;98617.23;1721821;83;20973;-37
2021/10/22 04:32:55;;;;;;;4.50;2.00;;;;;;;13.36;48.61;98616.28;1721580;82;21519;-38
2021/10/22 04:35:22;;;;;;;5.90;1.82;;;;;;;13.32;48.16;98625.64;1721570;82;21053;-38
2021/10/22 04:38:11;;;;;;;9.43;1.75;;;;;;;13.30;48.09;98630.14;1721738;83;21131;-37
2021/10/22 04:40:32;;;;;;;2.55;1.42;;;;;;;13.28;47.95;98627.02;1718575;83;20958;-38
2021/10/22 04:43:13;;;;;;;3.60;1.55;;;;;;;13.28;47.62;98627.60;1724674;83;21511;-37
2021/10/22 04:45:40;;;;;;;;;;;;;;;13.28;47.43;98629.74;1729353;82;20980;-37
2021/10/22 04:48:09;;;;;;;6.83;1.62;;;;;;;13.28;47.15;98635.19;1726623;83;20602;-37
2021/10/22 04:50:43;;;;;;;8.00;1.60;;;;;;;13.22;47.42;98636.75;1726921;81;21095;-38
2021/10/22 04:53:09;;;;;;;9.75;1.60;;;;;;;13.26;47.50;98635.41;1726508;82;20992;-37
2021/10/22 04:57:21;;;;;;;4.10;1.60;;;;;;;13.33;47.57;98636.72;1783654;79;22658;-38
2021/10/22 04:59:48;;;;;;;4.62;1.42;;;;;;;13.21;47.69;98633.09;1754217;81;20893;-38
2021/10/22 05:02:15;;;;;;;6.12;1.52;;;;;;;13.20;47.63;98630.95;1754210;81;21136;-37
2021/10/22 05:04:42;;;;;;;5.30;1.70;;;;;;;13.20;47.81;98644.55;1753946;81;20972;-38
2021/10/22 05:07:10;;;;;;;5.85;1.90;;;;;;;13.18;47.81;98631.91;1754012;81;20949;-38
2021/10/22 05:09:36;;;;;;;5.78;1.80;;;;;;;13.15;47.84;98639.52;1754050;81;21005;-38
2021/10/22 05:12:07;;;;;;;7.62;1.87;;;;;;;13.13;47.92;98651.95;1753971;81;20893;-38
2021/10/22 05:14:35;;;;;;;4.83;1.82;;;;;;;13.10;48.17;98654.86;1754058;81;21137;-37
2021/10/22 05:17:04;;;;;;;4.00;1.90;;;;;;;13.06;48.22;98662.26;1754153;81;21511;-37
2021/10/22 05:19:31;;;;;;;4.35;1.80;;;;;;;13.00;48.57;98661.88;1753996;81;22140;-38
2021/10/22 05:21:59;;;;;;;7.10;1.80;;;;;;;12.97;48.73;98657.81;1753998;81;21019;-37
2021/10/22 05:24:25;;;;;;;5.95;2.30;;;;;;;12.94;48.70;98656.63;1753951;81;21071;-37
2021/10/22 05:26:52;;;;;;;9.53;2.58;;;;;;;12.91;48.81;98659.37;1753923;81;21938;-37
2021/10/22 05:29:19;;;;;;;7.30;2.50;;;;;;;12.89;48.98;98666.55;1753777;81;20984;-37
2021/10/22 05:31:46;;;;;;;8.73;2.72;;;;;;;12.90;49.15;98664.61;1753936;81;21063;-37
2021/10/22 05:34:13;;;;;;;8.55;2.77;;;;;;;12.88;49.31;98669.08;1753796;81;21104;-37
2021/10/22 05:36:39;;;;;;;9.20;2.62;;;;;;;12.88;49.50;98671.02;1754099;81;21028;-37
2021/10/22 05:39:06;;;;;;;8.73;2.50;;;;;;;12.88;49.62;98669.08;1754075;81;21141;-38
2021/10/22 05:41:32;;;;;;;9.30;2.45;;;;;;;12.92;49.74;98675.89;1753883;81;21511;-38
2021/10/22 05:43:59;;;;;;;11.18;2.62;;;;;;;12.95;49.88;98683.27;1753925;81;20913;-37
2021/10/22 05:46:26;;;;;;;7.50;2.30;;;;;;;12.95;49.89;98679.18;1753814;81;21491;-37
2021/10/22 05:48:53;;;;;;;9.30;2.10;;;;;;;12.96;50.11;98697.06;1753878;81;21016;-37
2021/10/22 05:51:20;;;;;;;7.03;2.85;;;;;;;12.96;50.34;98698.42;1741351;81;21126;-37
2021/10/22 05:53:49;;;;;;;14.23;3.90;;;;;;;12.96;50.78;98698.42;1726600;83;21567;-37
2021/10/22 05:56:15;;;;;;;12.33;3.83;;;;;;;12.95;50.93;98696.28;1721255;83;20973;-37
2021/10/22 05:58:42;;;;;;;6.95;3.02;;;;;;;12.96;50.74;98704.64;1714038;83;21037;-37
2021/10/22 06:01:09;;;;;;;6.45;2.65;;;;;;;12.96;50.89;98709.31;1714182;82;21049;-38
2021/10/22 06:03:35;;;;;;;9.03;2.80;;;;;;;12.97;50.76;98709.51;1714355;82;21148;-37
2021/10/22 06:06:02;;;;;;;6.47;2.60;;;;;;;12.97;50.62;98713.59;1714081;82;21005;-37
2021/10/22 06:08:28;;;;;;;10.82;2.50;;;;;;;12.97;50.57;98709.51;1713796;83;21021;-37
2021/10/22 06:10:56;;;;;;;6.83;2.50;;;;;;;12.98;50.64;98711.03;1713578;82;20994;-38
2021/10/22 06:13:23;;;;;;;6.95;2.65;;;;;;;12.97;50.70;98709.51;1713568;82;21008;-37
2021/10/22 06:15:50;;;;;;;9.13;2.87;;;;;;;12.96;50.90;98714.75;1713639;83;21103;-37
2021/10/22 06:18:18;;;;;;;9.53;3.25;;;;;;;12.94;51.02;98718.43;1713627;83;21096;-37
2021/10/22 06:20:49;;;;;;;6.80;3.25;;;;;;;12.91;51.13;98720.00;1713634;83;20962;-37
2021/10/22 06:25:58;;;;;;;6.20;2.92;;;;;;;12.90;51.57;98717.66;1713759;83;21602;-37
2021/10/22 06:28:25;;;;;;;10.28;3.12;;;;;;;12.87;51.79;98718.45;1713473;83;21858;-38
2021/10/22 06:30:52;;;;;;;6.22;3.10;;;;;;;12.88;51.87;98718.05;1713690;82;21085;-37
2021/10/22 06:33:19;;;;;;;9.48;3.58;;;;;;;12.91;51.98;98721.36;1713514;83;20984;-37
2021/10/22 06:35:47;;;;;;;8.75;3.10;;;;;;;12.94;52.05;98717.85;1713710;82;21567;-37
2021/10/22 06:38:14;;;;;;;9.18;3.65;;;;;;;12.97;51.91;98727.19;1713511;83;21037;-37
2021/10/22 06:40:41;;;;;;;11.30;3.75;;;;;;;13.01;51.91;98723.88;1713728;83;21073;-37
2021/10/22 06:43:09;;;;;;;13.13;4.00;;;;;;;13.07;52.10;98727.73;1713685;82;21267;-37
2021/10/22 06:45:36;;;;;;;8.83;3.15;;;;;;;13.10;52.03;98730.27;1713765;82;20934;-37
2021/10/22 06:48:05;;;;;;;9.35;3.70;;;;;;;13.15;52.33;98721.75;1713842;82;20996;-37
2021/10/22 06:50:32;;;;;;;8.65;4.22;;;;;;;13.20;52.45;98720.77;1713642;82;21341;-37
2021/10/22 06:52:59;;;;;;;6.35;3.70;;;;;;;13.27;52.78;98723.45;1713854;83;21138;-37
2021/10/22 06:55:26;;;;;;;9.30;3.67;;;;;;;13.33;52.80;98726.56;1713680;83;20945;-38
2021/10/22 06:57:52;;;;;;;11.55;3.80;;;;;;;13.43;52.61;98736.07;1713743;82;21275;-37
2021/10/22 07:00:19;;;;;;;6.97;3.55;;;;;;;13.51;52.64;98742.87;1713887;83;20981;-37
2021/10/22 07:02:54;;;;;;;10.50;3.37;;;;;;;13.60;52.00;98748.09;1713764;83;21096;-38
2021/10/22 07:07:57;;;;;;;8.13;3.45;;;;;;;13.79;49.48;98755.03;1713581;82;21032;-37
2021/10/22 07:10:23;;;;;;;10.75;3.25;;;;;;;13.85;48.25;98749.34;1713403;82;20938;-37
2021/10/22 07:12:51;;;;;;;11.53;3.10;;;;;;;13.90;47.59;98747.56;1713358;83;21025;-38
2021/10/22 07:15:21;;;;;;;8.65;3.25;;;;;;;13.95;47.74;98751.25;1713548;83;21045;-37
2021/10/22 07:17:47;;;;;;;5.15;2.90;;;;;;;13.99;47.12;98739.73;1713614;82;22316;-37
2021/10/22 07:20:15;;;;;;;5.58;2.60;;;;;;;14.01;46.84;98774.20;1713215;82;20997;-38
2021/10/22 07:22:50;;;;;;;5.67;2.70;;;;;;;14.04;46.54;98757.04;1713386;83;21026;-37
2021/10/22 07:25:20;;;;;;;8.63;2.85;;;;;;;14.08;46.91;98763.86;1713415;83;20989;-37
2021/10/22 07:27:48;;;;;;;8.33;3.27;;;;;;;14.12;46.47;98762.66;1713075;82;21614;-38
2021/10/22 07:30:15;;;;;;;4.58;2.77;;;;;;;14.16;45.98;98758.55;1713416;83;21158;-38
2021/10/22 07:32:42;;;;;;;7.22;3.20;;;;;;;14.19;46.26;98763.98;1713247;83;21484;-37
2021/10/22 07:35:08;;;;;;;5.92;2.60;;;;;;;14.26;46.26;98774.86;1713477;83;21036;-37
2021/10/22 07:37:35;;;;;;;6.55;2.83;;;;;;;14.34;45.56;98764.09;1713367;82;21045;-37
2021/10/22 07:40:04;;;;;;;6.28;2.80;;;;;;;14.42;44.79;98770.91;1713384;82;21069;-37
2021/10/22 07:42:31;;;;;;;7.27;2.53;;;;;;;14.49;44.56;98777.09;1713527;83;21117;-37
2021/10/22 07:44:59;;;;;;;6.25;2.10;;;;;;;14.57;43.29;98772.38;1713438;82;21055;-37
2021/10/22 07:47:33;;;;;;;6.97;2.50;;;;;;;14.62;42.33;98785.59;1713451;83;20993;-38
2021/10/22 07:50:00;;;;;;;5.37;1.85;;;;;;;14.67;42.22;98772.86;1713318;83;21580;-37
2021/10/22 07:52:29;;;;;;;5.12;2.27;;;;;;;14.74;42.47;98772.83;1713366;82;21037;-37
2021/10/22 07:54:59;;;;;;;4.92;1.80;;;;;;;14.82;41.91;98770.22;1713749;83;21230;-37
2021/10/22 07:57:27;;;;;;;5.30;1.87;;;;;;;14.91;41.41;98778.73;1713438;82;21009;-37
2021/10/22 07:59:55;;;;;;;4.08;2.00;;;;;;;14.97;41.12;98777.12;1713539;83;21006;-37
2021/10/22 08:02:21;;;;;;;9.90;2.60;;;;;;;15.02;41.21;98778.06;1713277;82;21050;-38
2021/10/22 08:04:51;;;;;;;13.15;3.22;;;;;;;15.07;40.50;98781.72;1713508;83;21057;-37
2021/10/22 08:07:22;;;;;;;10.30;2.10;;;;;;;15.13;40.73;98791.63;1713888;82;21107;-38
2021/10/22 08:09:50;;;;;;;7.45;2.55;;;;;;;15.16;40.49;98784.77;1742748;82;20929;-37
2021/10/22 08:12:19;;;;;;;5.28;2.35;;;;;;;15.19;40.43;98790.80;1759741;80;20992;-38
2021/10/22 08:14:46;;;;;;;9.23;2.50;;;;;;;15.16;40.28;98787.49;1779385;80;21068;-38
2021/10/22 08:17:16;;;;;;;10.78;2.58;;;;;;;15.15;40.51;98787.30;1779322;80;21032;-37
2021/10/22 08:19:51;;;;;;;3.70;1.82;;;;;;;15.12;40.11;98792.80;1779254;80;20984;-37
2021/10/22 08:22:32;;;;;;;6.87;1.98;;;;;;;15.09;40.16;98799.08;1778697;80;21523;-38
2021/10/22 08:25:07;;;;;;;8.48;2.35;;;;;;;15.05;40.14;98795.02;1779193;80;21770;-38
2021/10/22 08:27:36;;;;;;;7.97;2.25;;;;;;;15.06;40.25;98800.64;1779305;80;21001;-37
2021/10/22 08:30:05;;;;;;;5.75;2.05;;;;;;;15.08;40.20;98809.22;1779321;80;21028;-38
2021/10/22 08:32:32;;;;;;;9.40;1.90;;;;;;;15.14;40.12;98802.16;1779327;80;21112;-38
2021/10/22 08:35:01;;;;;;;4.47;1.90;;;;;;;15.22;40.11;98800.12;1779236;80;20947;-38
2021/10/22 08:37:30;;;;;;;6.95;1.92;;;;;;;15.30;39.86;98809.05;1779102;80;20999;-38
2021/10/22 08:39:57;;;;;;;6.80;2.15;;;;;;;15.33;39.74;98804.91;1779206;80;21087;-38
2021/10/22 08:42:25;;;;;;;4.55;1.62;;;;;;;15.40;40.29;98814.98;1779188;80;20977;-37
2021/10/22 08:44:52;;;;;;;4.37;1.95;;;;;;;15.50;39.52;98807.27;1779251;80;21711;-37
2021/10/22 08:47:30;;;;;;;6.78;1.70;;;;;;;15.61;39.14;98803.87;1779321;80;20956;-37
2021/10/22 08:50:00;;;;;;;9.43;1.87;;;;;;;15.74;39.30;98810.38;1779315;80;21060;-38
2021/10/22 08:52:32;;;;;;;8.37;1.50;;;;;;;15.88;38.11;98814.31;1718618;80;21625;-38
2021/10/22 08:55:10;;;;;;;9.95;1.90;;;;;;;15.95;37.54;98829.28;1713486;82;21104;-38
2021/10/22 08:57:45;;;;;;;8.65;1.80;;;;;;;15.95;37.62;98822.45;1713697;83;21095;-38
2021/10/22 09:00:15;;;;;;;3.40;1.47;;;;;;;15.94;37.86;98822.26;1713308;83;21061;-38
2021/10/22 09:02:44;;;;;;;8.48;1.82;;;;;;;15.99;37.61;98820.44;1713319;82;20970;-38
2021/10/22 09:05:20;;;;;;;8.27;1.50;;;;;;;15.99;37.10;98831.38;1713706;82;21026;-37
2021/10/22 09:07:52;;;;;;;7.65;2.02;;;;;;;15.95;37.35;98818.94;1713579;82;20921;-38
2021/10/22 09:10:23;;;;;;;;;;;;;;;15.92;37.22;98834.20;1716149;83;21126;-38
2021/10/22 09:12:57;;;;;;;9.43;2.17;;;;;;;15.92;37.67;98824.64;1713458;83;20167;-38
2021/10/22 09:15:39;;;;;;;5.78;2.12;;;;;;;15.88;37.57;98825.24;1713534;83;21037;-38
2021/10/22 09:18:19;;;;;;;9.93;2.00;;;;;;;15.94;37.39;98830.45;1713707;83;21034;-38
2021/10/22 09:20:55;;;;;;;8.23;2.00;;;;;;;16.02;37.60;98824.33;1711732;82;21099;-38
2021/10/22 09:23:38;;;;;;;5.08;1.60;;;;;;;16.08;37.07;98834.39;1713549;83;21163;-37
2021/10/22 09:26:25;;;;;;;6.50;1.70;;;;;;;16.16;36.78;98830.22;1713262;83;21080;-38
2021/10/22 09:28:52;;;;;;;6.60;2.52;;;;;;;16.21;36.79;98836.61;1713531;82;21846;-38
2021/10/22 09:31:20;;;;;;;5.85;1.65;;;;;;;16.24;36.80;98850.82;1713376;83;21050;-37
2021/10/22 09:33:57;;;;;;;7.53;1.60;;;;;;;16.26;36.38;98833.42;1713469;83;21061;-38
2021/10/22 09:36:38;;;;;;;12.93;2.00;;;;;;;16.29;36.22;98809.34;1713364;82;21116;-38
2021/10/22 09:39:15;;;;;;;8.13;2.12;;;;;;;16.38;36.41;98823.28;1713196;82;21025;-37
2021/10/22 09:41:56;;;;;;;15.70;1.85;;;;;;;16.49;36.41;98830.77;1713175;83;21003;-38
2021/10/22 09:44:28;;;;;;;9.78;2.02;;;;;;;16.59;36.01;98820.30;1713303;83;21033;-38
2021/10/22 09:47:18;;;;;;;5.62;1.50;;;;;;;16.67;35.60;98825.07;1713644;82;21041;-38
2021/10/22 09:49:50;;;;;;;6.92;1.40;;;;;;;16.76;35.57;98826.70;1733011;82;21889;-38
2021/10/22 09:52:20;;;;;;;5.45;1.65;;;;;;;16.82;35.14;98825.05;1743053;80;20945;-38
2021/10/22 09:54:47;;;;;;;;;;;;;;;16.89;35.38;98829.81;1745775;81;21021;-38
2021/10/22 09:57:16;;;;;;;4.33;2.02;;;;;;;17.05;34.70;98833.88;1743037;81;20137;-38
2021/10/22 09:59:43;;;;;;;8.10;1.87;;;;;;;17.08;34.83;98838.55;1743090;82;21041;-38
2021/10/22 10:02:11;;;;;;;4.67;1.80;;;;;;;17.20;34.55;98843.42;1743108;82;21121;-38
2021/10/22 10:04:38;;;;;;;7.33;1.72;;;;;;;17.24;34.05;98836.70;1742937;81;21009;-38
2021/10/22 10:07:07;;;;;;;5.35;1.70;;;;;;;17.24;34.48;98837.29;1743071;81;20978;-37
2021/10/22 10:09:37;;;;;;;9.30;1.80;;;;;;;17.28;34.36;98834.67;1743065;82;20935;-38
2021/10/22 10:12:05;;;;;;;4.12;1.62;;;;;;;17.36;34.47;98827.13;1743569;82;21728;-38
2021/10/22 10:14:32;;;;;;;11.60;1.77;;;;;;;17.50;33.89;98827.47;1743237;82;21778;-38
2021/10/22 10:17:02;;;;;;;11.48;1.60;;;;;;;17.60;33.84;98825.17;1743212;82;20994;-38
2021/10/22 10:19:45;;;;;;;5.92;1.85;;;;;;;17.67;33.78;98840.13;1743218;81;20962;-38
2021/10/22 10:22:14;;;;;;;11.08;2.22;;;;;;;17.70;33.61;98829.69;1719542;82;21548;-38
2021/10/22 10:24:48;;;;;;;3.70;1.60;;;;;;;17.74;33.89;98829.80;1713613;82;21053;-38
2021/10/22 10:27:18;;;;;;;5.40;1.50;;;;;;;17.84;33.29;98824.53;1713479;82;21141;-38
2021/10/22 10:29:49;;;;;;;11.68;1.50;;;;;;;17.85;32.60;98835.68;1713453;83;21543;-38
2021/10/22 10:32:18;;;;;;;5.60;1.72;;;;;;;17.86;32.98;98835.86;1713401;83;21010;-38
2021/10/22 10:34:55;;;;;;;14.47;2.37;;;;;;;17.88;32.59;98843.83;1713527;83;21057;-38
2021/10/22 10:37:34;;;;;;;9.10;1.82;;;;;;;17.86;32.77;98848.98;1713271;83;21301;-38
2021/10/22 10:40:17;;;;;;;31.30;2.90;;;;;;;17.83;32.47;98847.06;1713399;83;21615;-38
2021/10/22 10:42:55;;;;;;;6.42;1.50;;;;;;;17.86;32.67;98846.83;1707460;83;20938;-38
2021/10/22 10:45:27;;;;;;;6.65;1.65;;;;;;;17.88;32.58;98838.94;1713446;83;21013;-38
2021/10/22 10:48:18;;;;;;;5.53;1.52;;;;;;;17.89;32.64;98831.67;1713370;82;20981;-38
2021/10/22 10:51:04;;;;;;;11.73;1.85;;;;;;;17.97;32.98;98846.79;1720100;80;21466;-38
2021/10/22 10:53:36;;;;;;;6.78;1.65;;;;;;;18.05;32.59;98850.96;1742854;81;21564;-38
2021/10/22 10:56:34;;;;;;;6.35;1.60;;;;;;;18.09;32.72;98846.17;1743010;80;20997;-38
2021/10/22 10:59:00;;;;;;;5.90;1.65;;;;;;;18.00;32.20;98848.70;1736778;82;20993;-38
2021/10/22 11:01:31;;;;;;;24.67;2.72;;;;;;;17.85;32.67;98833.72;1742958;81;21061;-38
2021/10/22 11:03:58;;;;;;;3.30;1.52;;;;;;;17.78;32.34;98846.95;1743057;81;20957;-38
2021/10/22 11:06:59;;;;;;;3.62;1.80;;;;;;;17.67;32.76;98855.95;1743011;82;21814;-38
2021/10/22 11:09:43;;;;;;;5.60;1.50;;;;;;;17.52;32.92;98866.98;1742375;81;20982;-38
2021/10/22 11:12:07;;;;;;;17.30;1.92;;;;;;;17.44;33.10;98863.39;1743393;81;21013;-38
2021/10/22 11:14:42;;;;;;;6.03;2.08;;;;;;;17.57;33.10;98856.88;1743233;81;21032;-38
2021/10/22 11:17:10;;;;;;;4.78;1.25;;;;;;;17.81;32.56;98865.30;1743223;82;20950;-38
2021/10/22 11:19:40;;;;;;;7.08;1.42;;;;;;;18.05;32.02;98859.78;1743223;81;20954;-38
2021/10/22 11:22:13;;;;;;;5.58;1.50;;;;;;;18.24;31.63;98850.78;1742809;82;20953;-38
2021/10/22 11:24:41;;;;;;;3.62;1.52;;;;;;;18.43;31.52;98852.73;1743070;81;20958;-38
2021/10/22 11:27:16;;;;;;;5.75;1.60;;;;;;;18.60;30.89;98859.06;1743149;81;20966;-38
2021/10/22 11:29:46;;;;;;;12.90;1.92;;;;;;;18.66;31.01;98849.91;1742596;81;21077;-38
2021/10/22 11:32:22;;;;;;;9.13;1.70;;;;;;;18.72;30.65;98840.57;1743182;82;23479;-38
2021/10/22 11:34:57;;;;;;;5.33;1.60;;;;;;;18.76;31.04;98856.36;1727509;81;20984;-38
2021/10/22 11:37:27;;;;;;;6.25;1.80;;;;;;;18.79;30.44;98858.84;1713472;83;21073;-38
2021/10/22 11:39:55;;;;;;;4.67;1.47;;;;;;;18.82;30.53;98853.30;1713397;82;20989;-38
2021/10/22 11:42:32;;;;;;;8.85;1.72;;;;;;;18.92;30.04;98866.61;1713468;83;21489;-38
2021/10/22 11:45:08;;;;;;;9.45;1.87;;;;;;;18.99;29.96;98860.94;1713430;83;21848;-39
2021/10/22 11:47:41;;;;;;;6.03;1.67;;;;;;;19.11;29.76;98857.53;1713295;83;21045;-38